createdAt,value
2019-02-24T00:01:32.536Z,-2.00
2019-02-24T00:04:05.201Z,-2.10
2019-02-24T00:06:36.362Z,-2.10
2019-02-24T00:09:07.507Z,-2.30
2019-02-24T00:11:38.570Z,-2.50
2019-02-24T00:14:09.454Z,-2.60
2019-02-24T00:16:40.705Z,-2.70
2019-02-24T00:19:11.531Z,-2.40
2019-02-24T00:21:42.469Z,-2.30
2019-02-24T00:24:15.164Z,-2.40
2019-02-24T00:26:46.010Z,-2.30
2019-02-24T00:29:16.947Z,-2.40
2019-02-24T00:31:47.753Z,-2.60
2019-02-24T00:34:19.682Z,-2.60
2019-02-24T00:36:51.168Z,-2.50
2019-02-24T00:39:22.136Z,-2.40
2019-02-24T00:41:53.074Z,-2.70
2019-02-24T00:44:24.094Z,-2.80
2019-02-24T00:46:55.575Z,-2.80
2019-02-24T00:49:26.588Z,-2.90
2019-02-24T00:51:58.567Z,-3.00
2019-02-24T00:54:29.500Z,-3.00
2019-02-24T00:57:00.442Z,-2.80
2019-02-24T00:59:31.246Z,-2.80
2019-02-24T01:02:02.109Z,-2.70
2019-02-24T01:04:33.049Z,-2.70
2019-02-24T01:07:05.167Z,-2.50
2019-02-24T01:09:36.157Z,-2.60
2019-02-24T01:12:07.090Z,-2.50
2019-02-24T01:14:38.031Z,-2.60
2019-02-24T01:17:10.092Z,-2.40
2019-02-24T01:19:41.064Z,-2.50
2019-02-24T01:22:11.975Z,-2.50
2019-02-24T01:24:42.883Z,-2.70
2019-02-24T01:27:15.075Z,-2.70
2019-02-24T01:29:46.014Z,-3.00
2019-02-24T01:32:16.953Z,-3.10
2019-02-24T01:34:47.858Z,-2.90
2019-02-24T01:37:18.828Z,-2.70
2019-02-24T01:39:49.737Z,-2.70
2019-02-24T01:42:20.590Z,-2.70
2019-02-24T01:44:52.046Z,-2.80
2019-02-24T01:47:22.985Z,-2.80
2019-02-24T01:49:53.727Z,-2.60
2019-02-24T01:52:24.655Z,-2.60
2019-02-24T01:54:56.810Z,-2.60
2019-02-24T01:57:27.629Z,-2.80
2019-02-24T01:59:58.599Z,-3.00
2019-02-24T02:02:31.318Z,-3.00
2019-02-24T02:05:02.317Z,-2.80
2019-02-24T02:07:33.157Z,-2.80
2019-02-24T02:10:04.605Z,-2.60
2019-02-24T02:12:35.437Z,-2.60
2019-02-24T02:15:07.102Z,-3.00
2019-02-24T02:17:37.930Z,-3.20
2019-02-24T02:20:10.296Z,-3.20
2019-02-24T02:22:41.099Z,-3.30
2019-02-24T02:25:11.940Z,-3.30
2019-02-24T02:27:42.907Z,-3.30
2019-02-24T02:30:13.845Z,-3.40
2019-02-24T02:32:45.762Z,-3.30
2019-02-24T02:35:16.746Z,-3.40
2019-02-24T02:37:48.606Z,-3.40
2019-02-24T02:40:19.545Z,-3.30
2019-02-24T02:42:50.380Z,-3.20
2019-02-24T02:45:21.233Z,-3.30
2019-02-24T02:47:52.049Z,-3.30
2019-02-24T02:50:22.966Z,-3.30
2019-02-24T02:52:54.642Z,-3.40
2019-02-24T02:55:26.548Z,-3.30
2019-02-24T02:57:57.542Z,-3.10
2019-02-24T03:00:30.701Z,-3.00
2019-02-24T03:03:02.490Z,-3.10
2019-02-24T03:05:34.347Z,-3.20
2019-02-24T03:08:11.601Z,-3.20
2019-02-24T03:10:42.545Z,-3.10
2019-02-24T03:13:13.714Z,-3.10
2019-02-24T03:15:44.665Z,-3.20
2019-02-24T03:18:15.562Z,-3.30
2019-02-24T03:20:46.535Z,-3.30
2019-02-24T03:23:17.572Z,-3.30
2019-02-24T03:25:48.405Z,-3.30
2019-02-24T03:28:20.265Z,-3.10
2019-02-24T03:30:51.204Z,-3.00
2019-02-24T03:33:23.250Z,-3.10
2019-02-24T03:35:54.206Z,-3.20
2019-02-24T03:38:25.040Z,-3.10
2019-02-24T03:40:55.873Z,-2.90
2019-02-24T03:43:27.636Z,-2.80
2019-02-24T03:45:58.341Z,-3.10
2019-02-24T03:48:29.302Z,-3.30
2019-02-24T03:51:00.211Z,-3.10
2019-02-24T03:53:32.567Z,-3.00
2019-02-24T03:56:03.549Z,-3.00
2019-02-24T03:58:34.491Z,-3.20
2019-02-24T04:01:05.295Z,-3.30
2019-02-24T04:03:37.693Z,-3.40
2019-02-24T04:06:08.529Z,-3.50
2019-02-24T04:08:39.466Z,-3.50
2019-02-24T04:11:10.481Z,-3.50
2019-02-24T04:13:41.334Z,-3.50
2019-02-24T04:16:12.282Z,-3.50
2019-02-24T04:18:43.189Z,-3.50
2019-02-24T04:21:14.159Z,-3.50
2019-02-24T04:23:44.994Z,-3.60
2019-02-24T04:26:15.914Z,-3.50
2019-02-24T04:28:46.870Z,-3.50
2019-02-24T04:31:18.115Z,-3.40
2019-02-24T04:33:48.954Z,-3.20
2019-02-24T04:36:19.886Z,-3.30
2019-02-24T04:38:50.932Z,-3.40
2019-02-24T04:41:22.448Z,-3.40
2019-02-24T04:43:53.415Z,-3.40
2019-02-24T04:46:24.253Z,-3.40
2019-02-24T04:48:55.162Z,-3.20
2019-02-24T04:51:26.031Z,-3.20
2019-02-24T04:53:56.962Z,-3.30
2019-02-24T04:56:27.801Z,-3.30
2019-02-24T04:58:58.634Z,-3.20
2019-02-24T05:01:31.010Z,-3.20
2019-02-24T05:04:01.849Z,-3.30
2019-02-24T05:06:32.764Z,-3.30
2019-02-24T05:09:04.235Z,-3.30
2019-02-24T05:11:36.704Z,-3.30
2019-02-24T05:14:07.543Z,-3.30
2019-02-24T05:16:38.374Z,-3.30
2019-02-24T05:19:09.210Z,-3.40
2019-02-24T05:21:40.023Z,-3.30
2019-02-24T05:24:10.955Z,-3.20
2019-02-24T05:26:41.834Z,-3.30
2019-02-24T05:29:12.727Z,-3.30
2019-02-24T05:31:43.697Z,-3.20
2019-02-24T05:34:14.604Z,-3.40
2019-02-24T05:36:45.881Z,-3.30
2019-02-24T05:39:18.117Z,-3.30
2019-02-24T05:41:49.091Z,-3.30
2019-02-24T05:44:20.023Z,-3.30
2019-02-24T05:46:51.244Z,-3.30
2019-02-24T05:49:22.103Z,-3.30
2019-02-24T05:51:53.041Z,-3.30
2019-02-24T05:54:24.876Z,-3.30
2019-02-24T05:56:56.910Z,-3.50
2019-02-24T05:59:27.805Z,-3.30
2019-02-24T06:01:58.736Z,-3.30
2019-02-24T06:04:29.674Z,-3.30
2019-02-24T06:07:01.328Z,-3.30
2019-02-24T06:09:32.167Z,-3.20
2019-02-24T06:12:03.074Z,-3.20
2019-02-24T06:14:33.938Z,-3.30
2019-02-24T06:17:06.106Z,-3.30
2019-02-24T06:19:37.048Z,-3.20
2019-02-24T06:22:07.982Z,-3.10
2019-02-24T06:24:38.817Z,-3.10
2019-02-24T06:27:09.862Z,-2.90
2019-02-24T06:29:40.775Z,-2.80
2019-02-24T06:32:11.632Z,-2.90
2019-02-24T06:34:42.466Z,-2.80
2019-02-24T06:37:14.220Z,-2.70
2019-02-24T06:39:45.062Z,-2.80
2019-02-24T06:42:15.994Z,-2.70
2019-02-24T06:44:46.808Z,-2.70
2019-02-24T06:47:17.664Z,-2.60
2019-02-24T06:49:48.500Z,-2.60
2019-02-24T06:52:21.037Z,-2.60
2019-02-24T06:54:51.988Z,-2.60
2019-02-24T06:57:23.672Z,-2.70
2019-02-24T06:59:54.505Z,-2.80
2019-02-24T07:02:25.414Z,-2.80
2019-02-24T07:04:56.382Z,-2.80
2019-02-24T07:07:27.422Z,-2.70
2019-02-24T07:09:58.259Z,-2.60
2019-02-24T07:12:29.196Z,-2.40
2019-02-24T07:15:00.033Z,-2.60
2019-02-24T07:17:31.141Z,-2.70
2019-02-24T07:20:02.012Z,-2.60
2019-02-24T07:22:32.945Z,-2.50
2019-02-24T07:25:04.277Z,-2.40
2019-02-24T07:30:09.212Z,-0.90
2019-02-24T07:32:40.183Z,0.50
2019-02-24T07:35:11.013Z,0.20
2019-02-24T07:37:41.850Z,0.70
2019-02-24T07:40:12.653Z,1.20
2019-02-24T07:42:45.155Z,0.70
2019-02-24T07:45:16.098Z,0.30
2019-02-24T07:47:46.932Z,-0.20
2019-02-24T07:50:17.848Z,-0.30
2019-02-24T07:52:48.809Z,-0.20
2019-02-24T07:55:21.057Z,1.20
2019-02-24T07:57:52.837Z,2.10
2019-02-24T08:00:31.695Z,3.50
2019-02-24T08:02:56.349Z,5.80
2019-02-24T08:05:27.287Z,7.00
2019-02-24T08:07:58.738Z,7.60
2019-02-24T08:10:30.187Z,7.60
2019-02-24T08:13:01.479Z,8.90
2019-02-24T08:15:32.589Z,10.50
2019-02-24T08:18:04.040Z,11.20
2019-02-24T08:20:35.246Z,10.50
2019-02-24T08:23:06.312Z,8.30
2019-02-24T08:25:37.379Z,7.10
2019-02-24T08:28:09.107Z,5.50
2019-02-24T08:30:42.812Z,4.80
2019-02-24T08:33:14.263Z,3.90
2019-02-24T08:35:45.790Z,3.20
2019-02-24T08:38:18.864Z,2.80
2019-02-24T08:40:50.248Z,2.80
2019-02-24T08:43:21.510Z,2.60
2019-02-24T08:45:55.997Z,3.80
2019-02-24T08:48:27.470Z,7.50
2019-02-24T08:50:58.400Z,10.10
2019-02-24T08:53:29.795Z,10.90
2019-02-24T08:56:01.294Z,12.10
2019-02-24T08:58:32.854Z,13.10
2019-02-24T09:01:04.074Z,13.40
2019-02-24T09:03:35.957Z,13.50
2019-02-24T09:06:07.009Z,13.90
2019-02-24T09:08:39.695Z,13.20
2019-02-24T09:11:11.146Z,13.10
2019-02-24T09:13:42.092Z,13.90
2019-02-24T09:16:13.975Z,13.90
2019-02-24T09:18:46.069Z,14.80
2019-02-24T09:21:18.985Z,14.50
2019-02-24T09:23:51.818Z,15.70
2019-02-24T09:26:24.274Z,16.70
2019-02-24T09:29:01.009Z,15.10
2019-02-24T09:31:37.830Z,15.70
2019-02-24T09:34:13.655Z,16.70
2019-02-24T09:36:48.349Z,16.90
2019-02-24T09:39:30.440Z,16.40
2019-02-24T09:42:09.894Z,15.90
2019-02-24T09:44:45.031Z,14.80
2019-02-24T09:47:18.863Z,16.00
2019-02-24T09:49:50.902Z,15.70
2019-02-24T09:52:24.245Z,17.10
2019-02-24T09:54:56.262Z,16.50
2019-02-24T09:57:28.024Z,17.00
2019-02-24T09:59:59.246Z,17.10
2019-02-24T10:02:30.406Z,16.70
2019-02-24T10:05:03.139Z,17.00
2019-02-24T10:07:34.674Z,17.10
2019-02-24T10:10:08.953Z,17.00
2019-02-24T10:12:40.177Z,18.30
2019-02-24T10:15:14.224Z,17.60
2019-02-24T10:17:47.444Z,18.00
2019-02-24T10:20:18.782Z,17.30
2019-02-24T10:22:50.200Z,16.50
2019-02-24T10:25:21.245Z,18.40
2019-02-24T10:27:54.130Z,18.10
2019-02-24T10:30:25.469Z,17.20
2019-02-24T10:32:56.631Z,19.10
2019-02-24T10:35:28.046Z,18.40
2019-02-24T10:37:59.934Z,19.10
2019-02-24T10:40:31.583Z,18.20
2019-02-24T10:43:05.095Z,18.60
2019-02-24T10:45:36.592Z,19.30
2019-02-24T10:48:14.277Z,19.00
2019-02-24T10:50:44.878Z,18.60
2019-02-24T10:53:18.350Z,19.70
2019-02-24T10:55:50.037Z,20.00
2019-02-24T10:58:21.354Z,20.90
2019-02-24T11:00:53.730Z,21.00
2019-02-24T11:03:26.612Z,19.70
2019-02-24T11:06:00.515Z,19.10
2019-02-24T11:08:33.820Z,20.80
2019-02-24T11:11:05.169Z,21.10
2019-02-24T11:13:36.405Z,22.00
2019-02-24T11:16:08.296Z,22.50
2019-02-24T11:18:39.486Z,21.80
2019-02-24T11:21:10.424Z,22.60
2019-02-24T11:23:41.393Z,20.70
2019-02-24T11:26:12.813Z,21.50
2019-02-24T11:28:43.774Z,21.90
2019-02-24T11:31:14.687Z,20.60
2019-02-24T11:33:45.654Z,21.40
2019-02-24T11:36:17.495Z,21.10
2019-02-24T11:38:48.432Z,21.70
2019-02-24T11:41:19.494Z,20.20
2019-02-24T11:43:50.845Z,21.10
2019-02-24T11:46:22.100Z,22.50
2019-02-24T11:48:53.466Z,21.20
2019-02-24T11:51:24.889Z,21.70
2019-02-24T11:53:56.341Z,21.10
2019-02-24T11:56:28.222Z,21.60
2019-02-24T11:58:59.378Z,20.50
2019-02-24T12:01:31.014Z,21.50
2019-02-24T12:04:02.385Z,22.00
2019-02-24T12:06:34.580Z,22.10
2019-02-24T12:09:06.458Z,22.70
2019-02-24T12:11:38.146Z,22.60
2019-02-24T12:14:10.417Z,22.10
2019-02-24T12:16:43.186Z,22.40
2019-02-24T12:19:14.645Z,22.70
2019-02-24T12:21:46.076Z,22.80
2019-02-24T12:24:18.649Z,23.30
2019-02-24T12:26:51.799Z,23.70
2019-02-24T12:29:23.086Z,23.20
2019-02-24T12:31:56.620Z,23.20
2019-02-24T12:34:27.117Z,22.80
2019-02-24T12:36:59.325Z,21.20
2019-02-24T12:39:30.419Z,22.40
2019-02-24T12:42:01.842Z,22.00
2019-02-24T12:44:33.250Z,22.00
2019-02-24T12:47:07.602Z,21.90
2019-02-24T12:49:39.195Z,21.80
2019-02-24T12:52:10.406Z,22.20
2019-02-24T12:54:43.119Z,21.20
2019-02-24T12:57:15.559Z,21.50
2019-02-24T12:59:46.936Z,21.40
2019-02-24T13:02:18.287Z,20.30
2019-02-24T13:04:50.863Z,20.70
2019-02-24T13:07:22.793Z,20.80
2019-02-24T13:09:54.004Z,21.70
2019-02-24T13:12:25.218Z,21.20
2019-02-24T13:14:56.415Z,21.20
2019-02-24T13:17:27.907Z,20.10
2019-02-24T13:19:59.152Z,21.50
2019-02-24T13:22:30.845Z,21.70
2019-02-24T13:25:02.220Z,19.80
2019-02-24T13:27:34.105Z,20.70
2019-02-24T13:30:07.683Z,20.70
2019-02-24T13:32:39.362Z,20.90
2019-02-24T13:35:10.876Z,20.90
2019-02-24T13:37:43.056Z,19.70
2019-02-24T13:40:16.250Z,19.90
2019-02-24T13:42:47.637Z,19.90
2019-02-24T13:45:20.322Z,20.00
2019-02-24T13:47:55.028Z,19.50
2019-02-24T13:50:26.573Z,19.70
2019-02-24T13:52:58.043Z,20.20
2019-02-24T13:55:29.469Z,20.50
2019-02-24T13:58:00.923Z,20.60
2019-02-24T14:00:32.522Z,20.10
2019-02-24T14:03:03.550Z,20.20
2019-02-24T14:05:34.697Z,19.60
2019-02-24T14:08:06.654Z,19.80
2019-02-24T14:10:38.134Z,20.30
2019-02-24T14:13:09.544Z,20.50
2019-02-24T14:15:40.995Z,20.60
2019-02-24T14:18:12.139Z,20.70
2019-02-24T14:20:43.893Z,20.40
2019-02-24T14:23:15.022Z,19.10
2019-02-24T14:25:46.077Z,19.00
2019-02-24T14:28:17.464Z,19.60
2019-02-24T14:30:48.975Z,19.40
2019-02-24T14:33:20.074Z,19.30
2019-02-24T14:35:51.442Z,19.20
2019-02-24T14:38:22.962Z,19.20
2019-02-24T14:40:53.956Z,19.30
2019-02-24T14:43:25.235Z,19.30
2019-02-24T14:45:57.444Z,19.20
2019-02-24T14:48:28.615Z,18.80
2019-02-24T14:51:00.345Z,18.60
2019-02-24T14:53:31.945Z,18.50
2019-02-24T14:56:04.428Z,18.50
2019-02-24T14:58:36.932Z,18.50
2019-02-24T15:01:08.059Z,18.00
2019-02-24T15:03:39.728Z,18.20
2019-02-24T15:06:11.434Z,17.90
2019-02-24T15:08:42.554Z,17.70
2019-02-24T15:11:13.691Z,17.10
2019-02-24T15:13:44.812Z,16.80
2019-02-24T15:16:16.677Z,16.80
2019-02-24T15:18:48.037Z,16.10
2019-02-24T15:21:20.378Z,16.20
2019-02-24T15:23:52.812Z,15.90
2019-02-24T15:26:23.748Z,14.80
2019-02-24T15:28:55.266Z,14.20
2019-02-24T15:31:26.489Z,13.90
2019-02-24T15:33:57.663Z,13.50
2019-02-24T15:36:28.922Z,13.60
2019-02-24T15:39:00.614Z,13.20
2019-02-24T15:41:33.661Z,13.40
2019-02-24T15:44:05.053Z,12.90
2019-02-24T15:46:36.383Z,12.80
2019-02-24T15:49:07.757Z,12.60
2019-02-24T15:51:38.927Z,12.60
2019-02-24T15:54:10.112Z,12.40
2019-02-24T15:56:42.782Z,12.10
2019-02-24T15:59:13.959Z,11.80
2019-02-24T16:03:04.602Z,11.50
2019-02-24T16:05:36.259Z,11.30
2019-02-24T16:08:07.643Z,11.20
2019-02-24T16:10:40.319Z,10.90
2019-02-24T16:13:16.919Z,10.60
2019-02-24T16:15:44.964Z,9.70
2019-02-24T16:18:16.120Z,9.30
2019-02-24T16:20:49.494Z,9.00
2019-02-24T16:23:22.082Z,9.70
2019-02-24T16:25:53.879Z,9.50
2019-02-24T16:28:25.128Z,9.90
2019-02-24T16:30:57.039Z,9.60
2019-02-24T16:33:28.980Z,9.50
2019-02-24T16:35:59.951Z,9.30
2019-02-24T16:38:32.831Z,9.30
2019-02-24T16:41:04.996Z,9.10
2019-02-24T16:43:36.553Z,9.10
2019-02-24T16:46:08.344Z,8.60
2019-02-24T16:48:41.418Z,8.20
2019-02-24T16:51:12.845Z,7.30
2019-02-24T16:53:44.574Z,7.60
2019-02-24T16:56:15.848Z,8.00
2019-02-24T16:58:47.888Z,8.10
2019-02-24T17:01:21.106Z,7.60
2019-02-24T17:03:52.476Z,7.40
2019-02-24T17:06:25.163Z,7.10
2019-02-24T17:09:00.583Z,7.30
2019-02-24T17:11:30.341Z,7.10
2019-02-24T17:14:01.421Z,7.10
2019-02-24T17:16:33.004Z,7.00
2019-02-24T17:19:04.639Z,6.80
2019-02-24T17:21:36.668Z,6.70
2019-02-24T17:24:07.943Z,6.70
2019-02-24T17:26:39.321Z,6.50
2019-02-24T17:29:11.452Z,6.00
2019-02-24T17:31:44.121Z,6.10
2019-02-24T17:34:16.411Z,6.10
2019-02-24T17:36:49.107Z,6.10
2019-02-24T17:39:21.709Z,5.80
2019-02-24T17:41:55.760Z,5.80
2019-02-24T17:44:28.528Z,5.60
2019-02-24T17:47:01.022Z,5.50
2019-02-24T17:49:33.624Z,5.50
2019-02-24T17:52:07.623Z,5.50
2019-02-24T17:54:38.865Z,5.40
2019-02-24T17:57:10.307Z,5.40
2019-02-24T17:59:43.445Z,5.50
2019-02-24T18:02:17.518Z,5.20
2019-02-24T18:04:49.922Z,5.10
2019-02-24T18:07:22.172Z,5.10
2019-02-24T18:09:56.013Z,5.10
2019-02-24T18:12:29.035Z,4.90
2019-02-24T18:15:01.705Z,5.00
2019-02-24T18:17:35.955Z,4.80
2019-02-24T18:20:14.013Z,4.30
2019-02-24T18:22:46.969Z,4.20
2019-02-24T18:25:19.902Z,4.40
2019-02-24T18:27:52.783Z,4.30
2019-02-24T18:30:27.000Z,4.40
2019-02-24T18:33:01.268Z,4.30
2019-02-24T18:35:36.319Z,4.20
2019-02-24T18:38:09.368Z,4.40
2019-02-24T18:40:42.479Z,4.10
2019-02-24T18:43:18.341Z,3.80
2019-02-24T18:45:52.682Z,3.90
2019-02-24T18:48:25.411Z,3.90
2019-02-24T18:50:58.062Z,3.50
2019-02-24T18:53:31.839Z,3.40
2019-02-24T18:56:04.671Z,3.30
2019-02-24T18:58:37.582Z,3.10
2019-02-24T19:01:10.040Z,3.30
2019-02-24T19:03:42.997Z,3.10
2019-02-24T19:06:16.299Z,3.20
2019-02-24T19:08:48.870Z,3.40
2019-02-24T19:11:22.010Z,3.50
2019-02-24T19:13:54.622Z,3.50
2019-02-24T19:16:28.857Z,3.50
2019-02-24T19:19:01.648Z,3.60
2019-02-24T19:21:34.562Z,3.40
2019-02-24T19:24:06.762Z,3.30
2019-02-24T19:26:39.065Z,3.00
2019-02-24T19:29:11.136Z,2.90
2019-02-24T19:31:44.793Z,2.40
2019-02-24T19:34:17.339Z,2.00
2019-02-24T19:36:51.530Z,1.80
2019-02-24T19:39:32.109Z,2.10
2019-02-24T19:42:08.146Z,2.30
2019-02-24T19:44:41.154Z,2.20
2019-02-24T19:47:14.041Z,2.00
2019-02-24T19:49:48.926Z,2.20
2019-02-24T19:52:28.390Z,2.50
2019-02-24T19:55:05.071Z,2.50
2019-02-24T19:57:39.486Z,2.50
2019-02-24T20:00:14.742Z,2.40
2019-02-24T20:02:48.673Z,2.50
2019-02-24T20:05:23.308Z,2.40
2019-02-24T20:07:56.048Z,1.90
2019-02-24T20:10:32.094Z,1.90
2019-02-24T20:13:08.430Z,2.00
2019-02-24T20:15:41.162Z,2.00
2019-02-24T20:18:13.956Z,1.80
2019-02-24T20:20:46.642Z,1.80
2019-02-24T20:23:20.931Z,1.70
2019-02-24T20:25:53.367Z,1.80
2019-02-24T20:28:25.950Z,1.80
2019-02-24T20:30:57.455Z,1.70
2019-02-24T20:33:30.478Z,1.60
2019-02-24T20:36:03.000Z,1.50
2019-02-24T20:38:35.383Z,1.40
2019-02-24T20:41:07.747Z,1.40
2019-02-24T20:43:42.472Z,1.60
2019-02-24T20:46:14.922Z,1.70
2019-02-24T20:48:47.401Z,1.80
2019-02-24T20:51:18.936Z,1.80
2019-02-24T20:53:51.408Z,1.90
2019-02-24T20:56:22.341Z,1.90
2019-02-24T20:58:53.590Z,1.90
2019-02-24T21:01:24.528Z,1.90
2019-02-24T21:03:56.695Z,1.70
2019-02-24T21:06:27.632Z,1.50
2019-02-24T21:08:58.670Z,1.20
2019-02-24T21:11:29.714Z,1.10
2019-02-24T21:14:01.682Z,1.20
2019-02-24T21:16:32.483Z,1.20
2019-02-24T21:19:03.445Z,1.40
2019-02-24T21:21:34.383Z,1.40
2019-02-24T21:24:06.422Z,1.40
2019-02-24T21:26:37.261Z,1.30
2019-02-24T21:29:08.125Z,1.30
2019-02-24T21:31:38.956Z,1.30
2019-02-24T21:34:10.326Z,1.30
2019-02-24T21:36:41.147Z,1.10
2019-02-24T21:39:12.182Z,0.90
2019-02-24T21:41:43.221Z,0.80
2019-02-24T21:44:15.084Z,0.70
2019-02-24T21:46:47.043Z,0.70
2019-02-24T21:49:17.980Z,0.70
2019-02-24T21:51:48.918Z,0.80
2019-02-24T21:54:20.959Z,0.90
2019-02-24T21:56:53.396Z,0.70
2019-02-24T21:59:24.290Z,0.80
2019-02-24T22:01:55.199Z,0.70
2019-02-24T22:04:27.574Z,0.60
2019-02-24T22:06:58.539Z,0.50
2019-02-24T22:09:29.478Z,0.50
2019-02-24T22:12:00.415Z,0.50
2019-02-24T22:14:32.789Z,0.40
2019-02-24T22:17:04.855Z,0.40
2019-02-24T22:19:35.893Z,0.50
2019-02-24T22:22:07.239Z,0.50
2019-02-24T22:24:39.695Z,0.50
2019-02-24T22:27:10.550Z,0.40
2019-02-24T22:29:41.767Z,0.30
2019-02-24T22:32:12.739Z,0.40
2019-02-24T22:34:44.873Z,0.50
2019-02-24T22:37:15.806Z,0.30
2019-02-24T22:39:46.775Z,0.40
2019-02-24T22:42:17.710Z,0.50
2019-02-24T22:44:49.367Z,0.40
2019-02-24T22:47:20.199Z,0.30
2019-02-24T22:49:51.143Z,0.30
2019-02-24T22:52:22.986Z,0.30
2019-02-24T22:54:54.330Z,0.40
2019-02-24T22:57:25.389Z,0.20
2019-02-24T22:59:56.950Z,0.10
2019-02-24T23:02:28.071Z,0.20
2019-02-24T23:04:59.103Z,0.30
2019-02-24T23:07:30.165Z,0.10
2019-02-24T23:10:01.099Z,0.20
2019-02-24T23:12:32.655Z,0.30
2019-02-24T23:15:05.146Z,0.30
2019-02-24T23:17:36.063Z,0.20
2019-02-24T23:20:08.774Z,0.10
2019-02-24T23:22:39.650Z,0.20
2019-02-24T23:25:12.350Z,0.10
2019-02-24T23:27:43.574Z,0.10
2019-02-24T23:30:14.754Z,0.00
2019-02-24T23:32:45.667Z,0.00
2019-02-24T23:35:17.744Z,0.10
2019-02-24T23:37:48.710Z,-0.10
2019-02-24T23:40:19.708Z,0.00
2019-02-24T23:42:50.770Z,-0.10
2019-02-24T23:45:22.836Z,-0.10
2019-02-24T23:47:53.874Z,-0.30
2019-02-24T23:50:24.678Z,-0.30
2019-02-24T23:52:55.649Z,-0.30
2019-02-24T23:55:28.020Z,-0.30
2019-02-24T23:57:58.956Z,-0.30
